Time;durP1;ratioP1;P1;durP2;ratioP2;P2;SDS_P1;SDS_P2;PMS_P1;PMS_P2;Temp;Humidity;BMP_temperature;BMP_pressure;BME280_temperature;BME280_humidity;BME280_pressure;Samples;Min_cycle;Max_cycle;Signal;HPM_P1;HPM_P2
2022/08/26 00:02:05;;;;;;;;;;;28.30;75.20;;;;;;5053513;28;19932;-61
2022/08/26 00:04:33;;;;;;;;;;;28.20;74.70;;;;;;5054210;28;20019;-63
2022/08/26 00:06:58;;;;;;;;;;;28.30;75.20;;;;;;5053302;28;20263;-61
2022/08/26 00:09:24;;;;;;;;;;;28.30;75.10;;;;;;5054130;28;20008;-61
2022/08/26 00:11:49;;;;;;;;;;;28.50;75.30;;;;;;5054137;28;19940;-61
2022/08/26 00:14:15;;;;;;;;;;;28.50;75.30;;;;;;5053915;28;20000;-62
2022/08/26 00:16:41;;;;;;;;;;;28.10;75.00;;;;;;5064825;28;20410;-61
2022/08/26 00:19:07;;;;;;;;;;;28.60;75.30;;;;;;5053256;28;19970;-61
2022/08/26 00:21:32;;;;;;;;;;;28.10;74.90;;;;;;5052153;28;20400;-63
2022/08/26 00:23:58;;;;;;;;;;;28.20;75.20;;;;;;5053838;28;20063;-61
2022/08/26 00:26:24;;;;;;;;;;;28.50;75.20;;;;;;5052761;28;19925;-61
2022/08/26 00:28:49;;;;;;;;;;;28.70;75.50;;;;;;5053644;28;19925;-61
2022/08/26 00:31:15;;;;;;;;;;;28.50;75.30;;;;;;5053803;28;19924;-61
2022/08/26 00:33:41;;;;;;;;;;;28.40;75.30;;;;;;5085533;28;19925;-61
2022/08/26 00:36:06;;;;;;;;;;;28.30;75.10;;;;;;5053060;28;19931;-62
2022/08/26 00:38:32;;;;;;;;;;;28.60;75.40;;;;;;5053530;28;19982;-62
2022/08/26 00:40:58;;;;;;;;;;;28.50;75.40;;;;;;5052844;28;19925;-61
2022/08/26 00:43:23;;;;;;;;;;;28.50;75.40;;;;;;5053274;28;19932;-61
2022/08/26 00:46:12;;;;;;;;;;;28.20;75.10;;;;;;5067125;28;20298;-62
2022/08/26 00:48:38;;;;;;;;;;;28.40;74.10;;;;;;5069165;28;19925;-61
2022/08/26 00:51:24;;;;;;;;;;;28.40;75.30;;;;;;5066647;28;19978;-61
2022/08/26 00:53:51;;;;;;;;;;;28.30;75.50;;;;;;5053044;28;20409;-61
2022/08/26 00:56:21;;;;;;;;;;;28.40;75.60;;;;;;5051601;28;20011;-62
2022/08/26 00:58:46;;;;;;;;;;;28.30;75.50;;;;;;5049185;28;19932;-61
2022/08/26 01:01:12;;;;;;;;;;;28.40;75.30;;;;;;5051392;28;19929;-61
2022/08/26 01:03:38;;;;;;;;;;;28.40;75.50;;;;;;5053214;28;19925;-61
2022/08/26 01:06:05;;;;;;;;;;;28.40;75.20;;;;;;5067647;28;19993;-62
2022/08/26 01:08:31;;;;;;;;;;;28.20;75.00;;;;;;5052990;28;19925;-62
2022/08/26 01:10:56;;;;;;;;;;;28.30;75.20;;;;;;5052707;28;20302;-62
2022/08/26 01:13:22;;;;;;;;;;;28.30;75.30;;;;;;5053605;28;20054;-61
2022/08/26 01:15:48;;;;;;;;;;;28.30;75.30;;;;;;5053128;28;19925;-61
2022/08/26 01:18:14;;;;;;;;;;;28.20;75.50;;;;;;5052946;28;20287;-61
2022/08/26 01:20:46;;;;;;;;;;;28.20;75.10;;;;;;5052221;28;19928;-71
2022/08/26 01:23:13;;;;;;;;;;;28.40;74.20;;;;;;5041968;28;19935;-70
2022/08/26 01:25:40;;;;;;;;;;;28.40;75.50;;;;;;5051624;28;19932;-71
2022/08/26 01:28:07;;;;;;;;;;;28.40;75.70;;;;;;5052228;28;19925;-71
2022/08/26 01:30:33;;;;;;;;;;;28.20;75.60;;;;;;5036159;28;19925;-70
2022/08/26 01:33:00;;;;;;;;;;;28.40;75.80;;;;;;5057661;28;19952;-62
2022/08/26 01:35:25;;;;;;;;;;;28.40;75.80;;;;;;5072331;28;19924;-62
2022/08/26 01:37:52;;;;;;;;;;;28.40;75.70;;;;;;5069616;28;20333;-61
2022/08/26 01:40:19;;;;;;;;;;;28.20;75.70;;;;;;5073151;28;20019;-61
2022/08/26 01:42:45;;;;;;;;;;;28.40;75.70;;;;;;5071435;28;19924;-61
2022/08/26 01:45:13;;;;;;;;;;;28.30;75.70;;;;;;5055998;28;20012;-62
2022/08/26 01:47:39;;;;;;;;;;;28.10;75.50;;;;;;5065957;28;19925;-61
2022/08/26 01:50:06;;;;;;;;;;;28.20;75.40;;;;;;5067938;28;19986;-62
2022/08/26 01:52:32;;;;;;;;;;;28.30;75.50;;;;;;5066922;28;19928;-60
2022/08/26 01:54:57;;;;;;;;;;;28.40;75.70;;;;;;5057403;28;20023;-61
2022/08/26 01:57:24;;;;;;;;;;;28.50;76.00;;;;;;5056738;28;19947;-62
2022/08/26 01:59:50;;;;;;;;;;;28.20;76.00;;;;;;5069078;28;19925;-62
2022/08/26 02:02:16;;;;;;;;;;;28.30;75.90;;;;;;5053991;28;19933;-62
2022/08/26 02:04:48;;;;;;;;;;;28.20;75.70;;;;;;5056888;28;19935;-61
2022/08/26 02:07:14;;;;;;;;;;;28.00;74.50;;;;;;5059404;28;19925;-62
2022/08/26 02:09:40;;;;;;;;;;;28.30;75.90;;;;;;5055848;28;19931;-62
2022/08/26 02:12:06;;;;;;;;;;;28.40;76.00;;;;;;5056360;28;20298;-61
2022/08/26 02:14:40;;;;;;;;;;;28.30;75.90;;;;;;5071302;28;19924;-61
2022/08/26 02:17:06;;;;;;;;;;;28.40;75.00;;;;;;5056245;28;19932;-61
2022/08/26 02:19:33;;;;;;;;;;;28.50;76.50;;;;;;5066759;28;19925;-61
2022/08/26 02:21:59;;;;;;;;;;;28.40;76.50;;;;;;5068975;28;19932;-61
2022/08/26 02:24:26;;;;;;;;;;;28.60;76.90;;;;;;5073462;28;19924;-61
2022/08/26 02:26:52;;;;;;;;;;;28.40;76.80;;;;;;5055008;28;19929;-61
2022/08/26 02:29:37;;;;;;;;;;;28.10;76.30;;;;;;5069667;28;19951;-61
2022/08/26 02:32:02;;;;;;;;;;;28.50;75.50;;;;;;5085126;28;19982;-61
2022/08/26 02:34:29;;;;;;;;;;;28.40;76.80;;;;;;5069666;28;19978;-62
2022/08/26 02:36:55;;;;;;;;;;;28.50;77.10;;;;;;5055472;28;20021;-61
2022/08/26 02:39:21;;;;;;;;;;;28.50;77.00;;;;;;5054688;28;20409;-61
2022/08/26 02:41:47;;;;;;;;;;;28.30;76.70;;;;;;5054925;28;19925;-61
2022/08/26 02:44:12;;;;;;;;;;;28.40;76.80;;;;;;5056158;28;19924;-61
2022/08/26 02:46:38;;;;;;;;;;;28.10;76.70;;;;;;5056111;28;19936;-61
2022/08/26 02:49:04;;;;;;;;;;;28.40;77.10;;;;;;5082729;28;20348;-61
2022/08/26 02:51:29;;;;;;;;;;;28.30;76.80;;;;;;5054527;28;19927;-70
2022/08/26 02:53:55;;;;;;;;;;;28.40;77.10;;;;;;5048795;28;19979;-68
2022/08/26 02:56:21;;;;;;;;;;;28.30;77.00;;;;;;5069574;28;19925;-70
2022/08/26 02:58:47;;;;;;;;;;;28.20;77.20;;;;;;5055146;28;20508;-60
2022/08/26 03:01:23;;;;;;;;;;;28.50;77.20;;;;;;5055558;28;19925;-61
2022/08/26 03:03:48;;;;;;;;;;;28.60;76.10;;;;;;5054503;28;19925;-61
2022/08/26 03:06:14;;;;;;;;;;;28.20;76.90;;;;;;5055745;28;19925;-61
2022/08/26 03:08:40;;;;;;;;;;;28.50;77.20;;;;;;5055198;28;19925;-60
2022/08/26 03:11:05;;;;;;;;;;;28.30;77.20;;;;;;5055172;28;19979;-61
2022/08/26 03:13:31;;;;;;;;;;;28.70;77.60;;;;;;5072639;28;19928;-60
2022/08/26 03:15:56;;;;;;;;;;;28.30;77.20;;;;;;5047122;28;20015;-61
2022/08/26 03:18:22;;;;;;;;;;;28.40;77.40;;;;;;5054734;28;19968;-61
2022/08/26 03:20:48;;;;;;;;;;;28.40;77.30;;;;;;5055516;28;19925;-62
2022/08/26 03:23:13;;;;;;;;;;;28.40;77.50;;;;;;5054494;28;19925;-62
2022/08/26 03:25:39;;;;;;;;;;;28.40;77.20;;;;;;5055410;28;19921;-61
2022/08/26 03:28:04;;;;;;;;;;;28.20;77.50;;;;;;5069547;28;19931;-61
2022/08/26 03:30:39;;;;;;;;;;;28.30;77.40;;;;;;5054444;28;19932;-63
2022/08/26 03:33:05;;;;;;;;;;;28.40;76.70;;;;;;5054696;28;20354;-61
2022/08/26 03:35:31;;;;;;;;;;;28.30;77.70;;;;;;5054683;28;19925;-61
2022/08/26 03:37:57;;;;;;;;;;;28.50;77.80;;;;;;5054299;28;20019;-62
2022/08/26 03:40:23;;;;;;;;;;;28.20;77.50;;;;;;5055049;28;19925;-61
2022/08/26 03:42:49;;;;;;;;;;;28.70;78.10;;;;;;5053594;28;19978;-61
2022/08/26 03:45:15;;;;;;;;;;;28.40;77.80;;;;;;5054185;28;19925;-61
2022/08/26 03:47:40;;;;;;;;;;;28.50;78.00;;;;;;5053987;28;19924;-61
2022/08/26 03:50:07;;;;;;;;;;;28.30;77.50;;;;;;5054581;28;19931;-61
2022/08/26 03:52:32;;;;;;;;;;;28.30;77.50;;;;;;5054521;28;20019;-61
2022/08/26 03:54:58;;;;;;;;;;;28.50;77.90;;;;;;5052900;28;20383;-62
2022/08/26 03:57:24;;;;;;;;;;;28.60;78.10;;;;;;5053820;28;19925;-61
2022/08/26 03:59:50;;;;;;;;;;;28.60;78.00;;;;;;5055092;28;19948;-62
2022/08/26 04:02:15;;;;;;;;;;;28.30;77.80;;;;;;5054322;28;19975;-62
2022/08/26 04:04:41;;;;;;;;;;;28.30;77.70;;;;;;5053845;28;19964;-67
2022/08/26 04:07:07;;;;;;;;;;;28.40;78.10;;;;;;5053806;28;20329;-61
2022/08/26 04:09:32;;;;;;;;;;;28.50;78.00;;;;;;5053898;28;19964;-62
2022/08/26 04:11:58;;;;;;;;;;;28.50;78.10;;;;;;5053941;28;20015;-61
2022/08/26 04:14:24;;;;;;;;;;;28.40;78.20;;;;;;5054413;28;19943;-61
2022/08/26 04:16:50;;;;;;;;;;;28.20;78.20;;;;;;5054001;28;19925;-71
2022/08/26 04:19:15;;;;;;;;;;;28.50;78.70;;;;;;5052940;28;19994;-70
2022/08/26 04:21:41;;;;;;;;;;;28.50;78.30;;;;;;5053160;28;19933;-71
2022/08/26 04:24:07;;;;;;;;;;;28.60;78.40;;;;;;5053224;28;19925;-71
2022/08/26 04:26:36;;;;;;;;;;;28.10;78.10;;;;;;5066566;28;19920;-62
2022/08/26 04:29:05;;;;;;;;;;;28.30;78.30;;;;;;5053941;28;20031;-61
2022/08/26 04:31:32;;;;;;;;;;;28.40;78.50;;;;;;5053699;28;20302;-70
2022/08/26 04:33:58;;;;;;;;;;;28.40;78.00;;;;;;5054169;28;19968;-70
2022/08/26 04:36:24;;;;;;;;;;;28.40;77.70;;;;;;5054435;28;19931;-70
2022/08/26 04:38:50;;;;;;;;;;;28.50;78.50;;;;;;5054043;28;20392;-69
2022/08/26 04:41:16;;;;;;;;;;;28.10;77.40;;;;;;5053932;28;20344;-69
2022/08/26 04:43:42;;;;;;;;;;;28.50;78.70;;;;;;5053307;28;20023;-69
2022/08/26 04:46:08;;;;;;;;;;;28.10;78.20;;;;;;5049309;28;20011;-69
2022/08/26 04:48:34;;;;;;;;;;;28.30;78.60;;;;;;5052239;28;19925;-70
2022/08/26 04:51:00;;;;;;;;;;;28.30;78.40;;;;;;5054162;28;19925;-70
2022/08/26 04:53:26;;;;;;;;;;;28.50;78.80;;;;;;5053263;28;19924;-69
2022/08/26 04:55:51;;;;;;;;;;;28.40;78.80;;;;;;5052823;28;20437;-70
2022/08/26 04:58:17;;;;;;;;;;;28.50;78.90;;;;;;5053278;28;19932;-69
2022/08/26 05:00:47;;;;;;;;;;;28.40;79.10;;;;;;5052928;28;20443;-60
2022/08/26 05:03:16;;;;;;;;;;;28.30;77.70;;;;;;5053859;28;19925;-61
2022/08/26 05:05:42;;;;;;;;;;;28.10;77.60;;;;;;5053257;28;20279;-61
2022/08/26 05:08:08;;;;;;;;;;;28.30;79.10;;;;;;5052405;28;19925;-69
2022/08/26 05:10:37;;;;;;;;;;;28.70;79.60;;;;;;5052668;28;19925;-69
2022/08/26 05:13:03;;;;;;;;;;;28.10;79.20;;;;;;5053181;28;19971;-69
2022/08/26 05:15:28;;;;;;;;;;;28.50;79.30;;;;;;5053840;28;20358;-61
2022/08/26 05:17:54;;;;;;;;;;;28.50;79.30;;;;;;5053043;28;20383;-62
2022/08/26 05:20:20;;;;;;;;;;;28.80;79.60;;;;;;5052284;28;19971;-62
2022/08/26 05:22:46;;;;;;;;;;;28.30;79.20;;;;;;5053603;28;20015;-61
2022/08/26 05:25:12;;;;;;;;;;;28.30;79.10;;;;;;5035649;28;19988;-61
2022/08/26 05:27:38;;;;;;;;;;;28.40;79.40;;;;;;5052861;28;19961;-69
2022/08/26 05:30:05;;;;;;;;;;;28.60;79.70;;;;;;5053397;28;19947;-70
2022/08/26 05:32:31;;;;;;;;;;;28.30;79.20;;;;;;5052284;28;20402;-70
2022/08/26 05:34:56;;;;;;;;;;;28.40;79.30;;;;;;5053029;28;19978;-60
2022/08/26 05:37:22;;;;;;;;;;;28.50;79.70;;;;;;5052686;28;19929;-61
2022/08/26 05:39:48;;;;;;;;;;;28.50;79.50;;;;;;5035865;28;19921;-61
2022/08/26 05:42:14;;;;;;;;;;;28.50;79.90;;;;;;5050783;28;19925;-60
2022/08/26 05:44:40;;;;;;;;;;;28.20;79.80;;;;;;5052395;28;20015;-61
2022/08/26 05:47:06;;;;;;;;;;;28.30;79.70;;;;;;5052548;28;20024;-61
2022/08/26 05:49:32;;;;;;;;;;;28.50;80.10;;;;;;5052496;28;19936;-61
2022/08/26 05:51:57;;;;;;;;;;;28.20;79.60;;;;;;5052413;28;19920;-61
2022/08/26 05:54:23;;;;;;;;;;;28.70;80.30;;;;;;5053207;28;19925;-61
2022/08/26 05:56:51;;;;;;;;;;;28.60;80.20;;;;;;5052580;28;19928;-61
2022/08/26 05:59:17;;;;;;;;;;;28.30;80.40;;;;;;5052984;28;20016;-61
2022/08/26 06:01:43;;;;;;;;;;;28.60;80.40;;;;;;5052886;28;20016;-60
2022/08/26 06:04:08;;;;;;;;;;;28.50;80.30;;;;;;5052296;28;19932;-61
2022/08/26 06:06:35;;;;;;;;;;;28.40;79.90;;;;;;5052681;28;19925;-61
2022/08/26 06:09:01;;;;;;;;;;;28.50;80.40;;;;;;5050971;28;19925;-62
2022/08/26 06:11:27;;;;;;;;;;;28.50;80.60;;;;;;5052677;28;19933;-61
2022/08/26 06:13:53;;;;;;;;;;;28.80;80.70;;;;;;5052124;28;20324;-61
2022/08/26 06:16:19;;;;;;;;;;;28.20;80.50;;;;;;5052420;28;19928;-61
2022/08/26 06:18:45;;;;;;;;;;;28.50;80.80;;;;;;5056100;28;19925;-61
2022/08/26 06:21:11;;;;;;;;;;;28.50;80.80;;;;;;5056044;28;19924;-62
2022/08/26 06:26:32;;;;;;;;;;;28.50;79.70;;;;;;5033132;28;19929;-61
2022/08/26 06:28:57;;;;;;;;;;;28.60;80.60;;;;;;5031355;28;19948;-62
2022/08/26 06:31:24;;;;;;;;;;;28.50;80.60;;;;;;5034622;28;19932;-62
2022/08/26 06:33:49;;;;;;;;;;;28.60;80.80;;;;;;5033206;28;19932;-61
2022/08/26 06:36:19;;;;;;;;;;;28.50;80.50;;;;;;5029741;28;20469;-62
2022/08/26 06:38:46;;;;;;;;;;;28.60;79.60;;;;;;5029400;28;19928;-62
2022/08/26 06:41:11;;;;;;;;;;;28.60;80.90;;;;;;5026554;28;19929;-62
2022/08/26 06:43:37;;;;;;;;;;;28.60;80.70;;;;;;5033173;28;19932;-62
2022/08/26 06:46:04;;;;;;;;;;;28.40;80.40;;;;;;5030702;28;19925;-61
2022/08/26 06:48:30;;;;;;;;;;;28.60;80.90;;;;;;5008045;28;19925;-62
2022/08/26 06:51:06;;;;;;;;;;;28.50;80.40;;;;;;5024627;28;19925;-61
2022/08/26 06:53:31;;;;;;;;;;;28.80;79.70;;;;;;5025352;28;19965;-71
2022/08/26 06:55:57;;;;;;;;;;;28.30;80.50;;;;;;5017982;28;20414;-61
2022/08/26 06:58:23;;;;;;;;;;;28.60;80.70;;;;;;5032775;28;19925;-62
2022/08/26 07:00:48;;;;;;;;;;;28.90;80.80;;;;;;5028303;28;20276;-70
2022/08/26 07:03:14;;;;;;;;;;;28.90;80.90;;;;;;5049887;28;19925;-72
2022/08/26 07:05:40;;;;;;;;;;;28.90;80.60;;;;;;5054012;28;20278;-71
2022/08/26 07:08:05;;;;;;;;;;;28.50;80.10;;;;;;5054416;28;19931;-72
2022/08/26 07:10:31;;;;;;;;;;;29.00;80.40;;;;;;5056023;28;19984;-72
2022/08/26 07:12:56;;;;;;;;;;;28.40;79.90;;;;;;5054112;28;19933;-72
2022/08/26 07:15:22;;;;;;;;;;;28.80;80.10;;;;;;5064275;28;19920;-73
2022/08/26 07:17:48;;;;;;;;;;;28.90;80.10;;;;;;5054199;28;19995;-63
2022/08/26 07:20:13;;;;;;;;;;;28.90;79.80;;;;;;5055288;28;20016;-68
2022/08/26 07:22:39;;;;;;;;;;;28.50;79.80;;;;;;5055110;28;19924;-70
2022/08/26 07:25:08;;;;;;;;;;;28.70;79.60;;;;;;5055567;28;19925;-70
2022/08/26 07:27:35;;;;;;;;;;;28.90;80.20;;;;;;5054510;28;19948;-71
2022/08/26 07:30:00;;;;;;;;;;;28.80;80.10;;;;;;5055475;28;19931;-71
2022/08/26 07:32:26;;;;;;;;;;;28.80;79.80;;;;;;5054854;28;20417;-61
2022/08/26 07:34:52;;;;;;;;;;;28.80;79.70;;;;;;5055139;28;20340;-61
2022/08/26 07:37:21;;;;;;;;;;;29.00;79.90;;;;;;5054334;28;19931;-69
2022/08/26 07:39:47;;;;;;;;;;;29.00;79.80;;;;;;5083802;28;19925;-69
2022/08/26 07:42:13;;;;;;;;;;;28.80;79.70;;;;;;5070244;28;19986;-70
2022/08/26 07:44:39;;;;;;;;;;;28.90;80.60;;;;;;5047948;28;19964;-71
2022/08/26 07:47:05;;;;;;;;;;;28.90;79.40;;;;;;5054749;28;20286;-72
2022/08/26 07:49:31;;;;;;;;;;;28.80;79.90;;;;;;5054151;28;20465;-71
2022/08/26 07:51:57;;;;;;;;;;;28.90;79.80;;;;;;5054177;28;19971;-71
2022/08/26 07:54:23;;;;;;;;;;;28.60;79.80;;;;;;5055163;28;20267;-71
2022/08/26 07:56:49;;;;;;;;;;;29.00;80.10;;;;;;5054229;28;19925;-71
2022/08/26 07:59:18;;;;;;;;;;;28.90;80.20;;;;;;5048798;28;20370;-71
2022/08/26 08:01:44;;;;;;;;;;;28.80;80.20;;;;;;5054731;28;20015;-61
2022/08/26 08:04:10;;;;;;;;;;;28.60;80.00;;;;;;5054560;28;19925;-63
2022/08/26 08:06:37;;;;;;;;;;;28.80;80.30;;;;;;5054506;28;19932;-62
2022/08/26 08:09:03;;;;;;;;;;;28.60;79.70;;;;;;5053818;28;19947;-65
2022/08/26 08:11:29;;;;;;;;;;;28.70;80.30;;;;;;5048856;28;20390;-68
2022/08/26 08:13:55;;;;;;;;;;;28.40;80.00;;;;;;5081042;28;19987;-71
2022/08/26 08:16:23;;;;;;;;;;;28.80;80.30;;;;;;5054276;28;19932;-70
2022/08/26 08:18:49;;;;;;;;;;;28.90;80.10;;;;;;5054479;28;19925;-62
2022/08/26 08:21:14;;;;;;;;;;;29.00;80.60;;;;;;5042265;28;20309;-62
2022/08/26 08:23:40;;;;;;;;;;;28.60;80.50;;;;;;5054559;28;19928;-62
2022/08/26 08:26:06;;;;;;;;;;;28.70;80.30;;;;;;5054416;28;19947;-61
2022/08/26 08:28:33;;;;;;;;;;;28.50;80.80;;;;;;5053196;28;20306;-62
2022/08/26 08:30:58;;;;;;;;;;;28.80;80.60;;;;;;5053352;28;19924;-67
2022/08/26 08:33:24;;;;;;;;;;;28.70;80.80;;;;;;5053559;28;19967;-62
2022/08/26 08:35:50;;;;;;;;;;;28.50;80.30;;;;;;5054378;28;19940;-63
2022/08/26 08:38:16;;;;;;;;;;;28.40;80.90;;;;;;5052413;28;19925;-62
2022/08/26 08:40:43;;;;;;;;;;;28.90;80.80;;;;;;5052299;28;20007;-67
2022/08/26 08:43:29;;;;;;;;;;;28.70;81.10;;;;;;5052413;28;19925;-65
2022/08/26 08:46:03;;;;;;;;;;;28.50;81.00;;;;;;5049927;28;19931;-64
2022/08/26 08:48:36;;;;;;;;;;;28.70;79.80;;;;;;5051958;28;19925;-62
2022/08/26 08:51:07;;;;;;;;;;;28.70;80.00;;;;;;5051510;28;20789;-70
2022/08/26 08:53:33;;;;;;;;;;;28.70;79.90;;;;;;5037881;28;19983;-63
2022/08/26 08:56:14;;;;;;;;;;;28.60;81.00;;;;;;5083441;28;19924;-62
2022/08/26 08:58:49;;;;;;;;;;;28.40;79.60;;;;;;5052952;28;19933;-64
2022/08/26 09:01:35;;;;;;;;;;;28.60;79.90;;;;;;5052862;28;19960;-64
2022/08/26 09:04:03;;;;;;;;;;;28.50;81.10;;;;;;5051892;28;19933;-62
2022/08/26 09:06:29;;;;;;;;;;;28.80;80.10;;;;;;5052770;28;19928;-62
2022/08/26 09:08:55;;;;;;;;;;;28.70;81.00;;;;;;5051683;28;20404;-70
2022/08/26 09:11:21;;;;;;;;;;;28.50;81.00;;;;;;5051125;28;19932;-66
2022/08/26 09:13:48;;;;;;;;;;;28.60;80.90;;;;;;5053452;28;20015;-69
2022/08/26 09:16:34;;;;;;;;;;;28.70;81.30;;;;;;5053040;28;19978;-61
2022/08/26 09:19:10;;;;;;;;;;;28.50;81.10;;;;;;5039651;28;20408;-63
2022/08/26 09:21:35;;;;;;;;;;;28.10;79.40;;;;;;5050323;28;19924;-68
2022/08/26 09:24:01;;;;;;;;;;;28.30;80.70;;;;;;5052935;28;19936;-62
2022/08/26 09:26:28;;;;;;;;;;;28.50;80.80;;;;;;5053060;28;19931;-61
2022/08/26 09:28:54;;;;;;;;;;;28.50;81.20;;;;;;5052742;28;20012;-63
2022/08/26 09:31:20;;;;;;;;;;;28.60;81.10;;;;;;5052173;28;20034;-64
2022/08/26 09:33:45;;;;;;;;;;;28.50;81.40;;;;;;5052241;28;19925;-62
2022/08/26 09:36:14;;;;;;;;;;;28.50;81.10;;;;;;5053127;28;19935;-62
2022/08/26 09:38:40;;;;;;;;;;;28.60;79.90;;;;;;5053645;28;19924;-62
2022/08/26 09:41:07;;;;;;;;;;;28.50;81.30;;;;;;5052866;28;20016;-61
2022/08/26 09:43:33;;;;;;;;;;;28.50;81.30;;;;;;5052732;28;19925;-61
2022/08/26 09:46:12;;;;;;;;;;;28.60;81.70;;;;;;5053125;28;19929;-62
2022/08/26 09:48:38;;;;;;;;;;;28.30;80.30;;;;;;5053497;28;19972;-62
2022/08/26 09:51:05;;;;;;;;;;;28.80;81.60;;;;;;5064223;28;19975;-62
2022/08/26 09:53:33;;;;;;;;;;;28.30;81.50;;;;;;5056994;28;20016;-61
2022/08/26 09:56:13;;;;;;;;;;;28.70;81.90;;;;;;5069014;28;19925;-61
2022/08/26 09:58:39;;;;;;;;;;;28.90;80.60;;;;;;5055207;28;19970;-61
2022/08/26 10:01:05;;;;;;;;;;;28.50;81.50;;;;;;5057363;28;19974;-61
2022/08/26 10:03:32;;;;;;;;;;;28.70;81.70;;;;;;5056047;28;19925;-62
2022/08/26 10:06:01;;;;;;;;;;;28.70;81.60;;;;;;5056678;28;19925;-61
2022/08/26 10:08:31;;;;;;;;;;;28.70;80.10;;;;;;5072544;28;19972;-61
2022/08/26 10:10:58;;;;;;;;;;;28.50;80.10;;;;;;5056788;28;19925;-61
2022/08/26 10:13:30;;;;;;;;;;;28.70;81.40;;;;;;5055801;28;20382;-61
2022/08/26 10:15:58;;;;;;;;;;;28.70;80.00;;;;;;5057036;28;19925;-61
2022/08/26 10:18:44;;;;;;;;;;;28.90;81.60;;;;;;5071020;28;19948;-61
2022/08/26 10:21:11;;;;;;;;;;;28.80;81.30;;;;;;5056340;28;19925;-61
2022/08/26 10:23:39;;;;;;;;;;;28.60;81.00;;;;;;5071192;28;19925;-61
2022/08/26 10:26:11;;;;;;;;;;;28.90;81.30;;;;;;5071300;28;20310;-61
2022/08/26 10:28:40;;;;;;;;;;;28.80;79.70;;;;;;5056726;28;19925;-62
2022/08/26 10:31:10;;;;;;;;;;;28.90;79.60;;;;;;5056761;28;19948;-63
2022/08/26 10:33:36;;;;;;;;;;;29.10;81.30;;;;;;5066624;28;19948;-62
2022/08/26 10:36:03;;;;;;;;;;;28.90;80.90;;;;;;5064305;28;19975;-62
2022/08/26 10:38:33;;;;;;;;;;;29.00;81.00;;;;;;5054376;28;19925;-62
2022/08/26 10:41:04;;;;;;;;;;;29.00;81.10;;;;;;5055084;28;20401;-61
2022/08/26 10:43:32;;;;;;;;;;;28.90;79.60;;;;;;5055644;28;19943;-70
2022/08/26 10:46:00;;;;;;;;;;;29.00;81.30;;;;;;5070585;28;19939;-73
2022/08/26 10:48:42;;;;;;;;;;;28.90;81.10;;;;;;5054854;28;19929;-66
2022/08/26 10:51:09;;;;;;;;;;;28.80;79.50;;;;;;5070607;28;19924;-61
2022/08/26 10:53:47;;;;;;;;;;;29.20;81.40;;;;;;5043918;28;19925;-62
2022/08/26 10:56:17;;;;;;;;;;;28.80;79.80;;;;;;5055933;28;20018;-61
2022/08/26 10:58:52;;;;;;;;;;;29.00;81.60;;;;;;5083556;28;19968;-62
2022/08/26 11:01:42;;;;;;;;;;;28.60;79.80;;;;;;5056224;28;19964;-61
2022/08/26 11:04:12;;;;;;;;;;;29.00;79.80;;;;;;5055380;28;19937;-62
2022/08/26 11:06:38;;;;;;;;;;;28.90;80.20;;;;;;5072141;28;19925;-62
2022/08/26 11:09:07;;;;;;;;;;;28.90;80.80;;;;;;5053387;28;19932;-62
2022/08/26 11:11:40;;;;;;;;;;;28.80;81.20;;;;;;5056016;28;19925;-61
2022/08/26 11:14:06;;;;;;;;;;;28.70;79.90;;;;;;5051285;28;19927;-61
2022/08/26 11:16:33;;;;;;;;;;;29.00;81.00;;;;;;5055788;28;20023;-62
2022/08/26 11:18:58;;;;;;;;;;;28.60;81.30;;;;;;5057746;28;19925;-62
2022/08/26 11:21:43;;;;;;;;;;;29.00;80.90;;;;;;5055314;28;20271;-62
2022/08/26 11:24:12;;;;;;;;;;;28.80;79.90;;;;;;5053024;28;19931;-61
2022/08/26 11:26:38;;;;;;;;;;;28.80;81.40;;;;;;5053283;28;19968;-62
2022/08/26 11:29:03;;;;;;;;;;;29.10;81.20;;;;;;5036140;28;20371;-64
2022/08/26 11:31:29;;;;;;;;;;;28.90;80.90;;;;;;5054682;28;19948;-66
2022/08/26 11:33:58;;;;;;;;;;;28.80;81.10;;;;;;5054365;28;20327;-62
2022/08/26 11:36:28;;;;;;;;;;;29.00;80.20;;;;;;5054968;28;19971;-62
2022/08/26 11:38:53;;;;;;;;;;;28.90;79.90;;;;;;5054342;28;19925;-62
2022/08/26 11:41:20;;;;;;;;;;;28.70;81.10;;;;;;5054517;28;19971;-62
2022/08/26 11:43:48;;;;;;;;;;;29.00;81.50;;;;;;5053240;28;20003;-62
2022/08/26 11:46:13;;;;;;;;;;;28.90;81.60;;;;;;5070061;28;19976;-62
2022/08/26 11:48:40;;;;;;;;;;;28.80;81.10;;;;;;5070606;28;19971;-62
2022/08/26 11:51:07;;;;;;;;;;;29.00;81.20;;;;;;5051235;28;19925;-62
2022/08/26 11:53:35;;;;;;;;;;;28.80;81.10;;;;;;5054050;28;19921;-62
2022/08/26 11:56:03;;;;;;;;;;;28.90;81.30;;;;;;5055160;28;19929;-61
2022/08/26 11:58:29;;;;;;;;;;;29.00;81.10;;;;;;5054463;28;19925;-61
2022/08/26 12:00:54;;;;;;;;;;;28.70;80.90;;;;;;5048168;28;19925;-61
2022/08/26 12:03:21;;;;;;;;;;;28.90;81.00;;;;;;5054991;28;19925;-61
2022/08/26 12:05:48;;;;;;;;;;;29.00;81.40;;;;;;5053584;28;19947;-64
2022/08/26 12:08:17;;;;;;;;;;;28.70;81.30;;;;;;5070162;28;19928;-63
2022/08/26 12:10:45;;;;;;;;;;;28.70;80.10;;;;;;5069432;28;20269;-61
2022/08/26 12:13:24;;;;;;;;;;;28.90;81.10;;;;;;5054840;28;19936;-62
2022/08/26 12:15:53;;;;;;;;;;;28.80;80.10;;;;;;5053223;28;20325;-62
2022/08/26 12:18:20;;;;;;;;;;;28.60;79.80;;;;;;5053862;28;19932;-63
2022/08/26 12:20:52;;;;;;;;;;;28.80;81.20;;;;;;5054693;28;19925;-62
2022/08/26 12:23:21;;;;;;;;;;;28.80;80.10;;;;;;5054611;28;19988;-62
2022/08/26 12:25:48;;;;;;;;;;;28.90;80.10;;;;;;5054025;28;19971;-62
2022/08/26 12:28:13;;;;;;;;;;;28.80;81.20;;;;;;5069985;28;19924;-61
2022/08/26 12:30:39;;;;;;;;;;;28.70;81.00;;;;;;5054193;28;19935;-61
2022/08/26 12:33:07;;;;;;;;;;;28.80;81.40;;;;;;5046932;28;19957;-70
2022/08/26 12:35:33;;;;;;;;;;;28.70;81.20;;;;;;5052694;28;20278;-62
2022/08/26 12:37:59;;;;;;;;;;;28.60;81.30;;;;;;5059570;28;20063;-61
2022/08/26 12:40:39;;;;;;;;;;;28.50;80.90;;;;;;5052961;28;20011;-61
2022/08/26 12:43:05;;;;;;;;;;;28.60;79.90;;;;;;5045117;28;19925;-60
2022/08/26 12:45:41;;;;;;;;;;;28.80;81.00;;;;;;5053746;28;19929;-62
2022/08/26 12:48:07;;;;;;;;;;;28.90;79.70;;;;;;5083337;28;19968;-60
2022/08/26 12:50:33;;;;;;;;;;;28.90;80.80;;;;;;5053533;28;19991;-61
2022/08/26 12:53:08;;;;;;;;;;;28.70;80.90;;;;;;5053731;28;19924;-61
2022/08/26 12:55:42;;;;;;;;;;;28.70;79.60;;;;;;5053809;28;19925;-65
2022/08/26 12:58:09;;;;;;;;;;;28.80;79.70;;;;;;5073070;28;19925;-66
2022/08/26 13:00:35;;;;;;;;;;;28.80;81.00;;;;;;5053748;28;19964;-61
2022/08/26 13:03:01;;;;;;;;;;;28.60;80.70;;;;;;5053966;28;19928;-61
2022/08/26 13:05:31;;;;;;;;;;;28.90;81.10;;;;;;5052811;28;19925;-65
2022/08/26 13:08:07;;;;;;;;;;;28.40;80.50;;;;;;5052541;28;20015;-65
2022/08/26 13:10:34;;;;;;;;;;;28.50;78.70;;;;;;5053680;28;19925;-69
2022/08/26 13:13:00;;;;;;;;;;;28.30;80.30;;;;;;5053899;28;19925;-64
2022/08/26 13:15:25;;;;;;;;;;;28.60;80.30;;;;;;5053880;28;20401;-62
2022/08/26 13:17:51;;;;;;;;;;;28.70;80.70;;;;;;5053000;28;20336;-62
2022/08/26 13:20:16;;;;;;;;;;;28.50;80.30;;;;;;5053839;28;20014;-61
2022/08/26 13:22:42;;;;;;;;;;;28.20;80.30;;;;;;5053886;28;19925;-61
2022/08/26 13:25:08;;;;;;;;;;;28.70;80.60;;;;;;5052637;28;20015;-61
2022/08/26 13:27:33;;;;;;;;;;;28.60;80.50;;;;;;5057192;28;19932;-61
2022/08/26 13:30:00;;;;;;;;;;;28.60;80.30;;;;;;5057011;28;19924;-61
2022/08/26 13:32:26;;;;;;;;;;;28.30;80.20;;;;;;5057549;28;19925;-61
2022/08/26 13:34:51;;;;;;;;;;;28.30;80.20;;;;;;5052144;28;19974;-61
2022/08/26 13:37:22;;;;;;;;;;;28.00;80.00;;;;;;5057748;28;20012;-61
2022/08/26 13:39:48;;;;;;;;;;;28.70;80.70;;;;;;5056757;28;19979;-61
2022/08/26 13:42:13;;;;;;;;;;;28.50;81.90;;;;;;5056372;28;19928;-62
2022/08/26 13:44:42;;;;;;;;;;;28.40;81.50;;;;;;5056654;28;19974;-62
2022/08/26 13:47:08;;;;;;;;;;;28.40;81.70;;;;;;5056652;28;19931;-61
2022/08/26 13:49:33;;;;;;;;;;;28.30;81.70;;;;;;5056049;28;20011;-65
2022/08/26 13:52:00;;;;;;;;;;;28.00;81.60;;;;;;5056568;28;19975;-65
2022/08/26 13:54:25;;;;;;;;;;;28.20;82.10;;;;;;5057033;28;20340;-61
2022/08/26 13:56:51;;;;;;;;;;;27.90;81.80;;;;;;5056932;28;20027;-65
2022/08/26 13:59:16;;;;;;;;;;;28.20;81.70;;;;;;5056817;28;20390;-65
2022/08/26 14:01:42;;;;;;;;;;;27.90;82.50;;;;;;5056978;28;19972;-66
2022/08/26 14:04:08;;;;;;;;;;;28.20;81.80;;;;;;5056736;28;19933;-65
2022/08/26 14:06:33;;;;;;;;;;;28.00;81.70;;;;;;5056842;28;19932;-61
2022/08/26 14:08:59;;;;;;;;;;;28.30;81.60;;;;;;5056768;28;19983;-61
2022/08/26 14:11:25;;;;;;;;;;;28.20;81.50;;;;;;5055674;28;19925;-61
2022/08/26 14:13:51;;;;;;;;;;;28.50;81.70;;;;;;5056787;28;20390;-62
2022/08/26 14:16:23;;;;;;;;;;;28.40;81.10;;;;;;5056798;28;20062;-61
2022/08/26 14:18:49;;;;;;;;;;;28.20;80.20;;;;;;5056990;28;19925;-61
2022/08/26 14:21:15;;;;;;;;;;;28.30;81.30;;;;;;5056845;28;20286;-72